Time;durP1;ratioP1;P1;durP2;ratioP2;P2;SDS_P1;SDS_P2;PMS_P1;PMS_P2;Temp;Humidity;BMP_temperature;BMP_pressure;BME280_temperature;BME280_humidity;BME280_pressure;Samples;Min_cycle;Max_cycle;Signal;HPM_P1;HPM_P2
2021/11/19 00:01:31;;;;;;;41.42;20.20;;;;;;;10.17;100.00;102058.56;4873018;29;20040;-77
2021/11/19 00:03:57;;;;;;;39.75;19.88;;;;;;;10.21;100.00;102059.13;4903271;29;20072;-76
2021/11/19 00:06:23;;;;;;;37.55;20.17;;;;;;;10.15;100.00;102057.78;4902100;29;20052;-77
2021/11/19 00:08:50;;;;;;;40.28;19.27;;;;;;;10.13;100.00;102052.69;4903148;29;20933;-77
2021/11/19 00:11:19;;;;;;;40.67;19.05;;;;;;;10.10;100.00;102052.06;4892850;29;20152;-74
2021/11/19 00:13:47;;;;;;;42.17;18.73;;;;;;;10.26;100.00;102052.59;4920711;29;20032;-76
2021/11/19 00:16:14;;;;;;;45.25;18.40;;;;;;;10.25;100.00;102057.97;4893704;29;20051;-76
2021/11/19 00:18:41;;;;;;;41.47;19.20;;;;;;;10.25;100.00;102057.97;4901355;29;20042;-77
2021/11/19 00:21:07;;;;;;;38.15;18.25;;;;;;;10.26;100.00;102051.78;4888818;29;20043;-77
2021/11/19 00:23:33;;;;;;;33.38;17.83;;;;;;;10.23;100.00;102054.66;4887381;29;20092;-76
2021/11/19 00:25:58;;;;;;;41.97;17.13;;;;;;;10.27;100.00;102058.72;4884945;29;20048;-77
2021/11/19 00:28:24;;;;;;;39.75;17.38;;;;;;;10.25;100.00;102068.47;4876842;29;20040;-74
2021/11/19 00:30:50;;;;;;;36.47;16.80;;;;;;;10.18;100.00;102057.59;4904600;29;20135;-76
2021/11/19 00:33:15;;;;;;;38.42;17.00;;;;;;;10.24;100.00;102062.38;4877841;29;20029;-75
2021/11/19 00:35:44;;;;;;;31.40;15.55;;;;;;;10.23;100.00;102062.50;4894307;29;20052;-75
2021/11/19 00:38:12;;;;;;;32.15;16.38;;;;;;;10.23;100.00;102060.72;4892908;29;20538;-76
2021/11/19 00:40:45;;;;;;;33.63;15.45;;;;;;;10.25;100.00;102061.44;4901188;29;20068;-77
2021/11/19 00:43:11;;;;;;;;;;;;;;;10.29;100.00;102060.25;4887927;29;20067;-75
2021/11/19 00:45:37;;;;;;;27.13;13.85;;;;;;;10.30;100.00;102061.97;4901028;29;20378;-76
2021/11/19 00:48:04;;;;;;;33.55;13.90;;;;;;;10.33;100.00;102063.53;4897653;29;20040;-76
2021/11/19 00:50:36;;;;;;;31.15;14.18;;;;;;;10.39;100.00;102070.09;4922584;29;20036;-76
2021/11/19 00:53:02;;;;;;;31.92;14.27;;;;;;;10.32;100.00;102069.72;4863022;29;20051;-76
2021/11/19 00:55:28;;;;;;;32.85;13.55;;;;;;;10.27;100.00;102069.19;4891410;29;20120;-77
2021/11/19 00:57:54;;;;;;;33.10;14.20;;;;;;;10.27;100.00;102069.19;4909321;29;20036;-77
2021/11/19 01:00:25;;;;;;;28.35;14.05;;;;;;;10.39;100.00;102078.81;4880312;29;20498;-76
2021/11/19 01:02:50;;;;;;;34.40;13.82;;;;;;;10.40;100.00;102088.38;4910960;29;20039;-78
2021/11/19 01:05:17;;;;;;;29.58;13.85;;;;;;;10.32;100.00;102082.81;4881218;29;20047;-76
2021/11/19 01:07:43;;;;;;;31.27;13.68;;;;;;;10.36;100.00;102084.28;4862396;29;20058;-76
2021/11/19 01:10:15;;;;;;;32.05;13.88;;;;;;;10.38;100.00;102078.91;4891198;29;20060;-76
2021/11/19 01:12:41;;;;;;;25.55;13.10;;;;;;;10.39;100.00;102086.66;4881798;29;20044;-76
2021/11/19 01:15:38;;;;;;;30.35;13.57;;;;;;;10.45;100.00;102103.75;4864374;29;20124;-75
2021/11/19 01:18:16;;;;;;;31.10;13.30;;;;;;;10.47;100.00;102094.84;4886654;29;20066;-75
2021/11/19 01:20:59;;;;;;;33.90;13.32;;;;;;;10.47;100.00;102093.97;4883067;29;20047;-76
2021/11/19 01:23:27;;;;;;;30.08;13.48;;;;;;;10.44;100.00;102102.09;4880567;29;20489;-76
2021/11/19 01:26:08;;;;;;;27.75;13.43;;;;;;;10.42;100.00;102096.94;4873610;29;20555;-76
2021/11/19 01:28:35;;;;;;;26.20;14.10;;;;;;;10.43;100.00;102103.84;4868809;29;20454;-76
2021/11/19 01:31:07;;;;;;;29.73;13.80;;;;;;;10.43;100.00;102103.84;4876048;29;20117;-76
2021/11/19 01:33:33;;;;;;;37.28;13.35;;;;;;;10.37;100.00;102098.25;4898909;29;20037;-75
2021/11/19 01:36:09;;;;;;;37.05;13.27;;;;;;;10.38;100.00;102098.13;4880708;29;20036;-75
2021/11/19 01:38:45;;;;;;;31.70;12.68;;;;;;;10.33;100.00;102095.00;4882335;29;20048;-76
2021/11/19 01:41:33;;;;;;;28.73;12.77;;;;;;;10.41;100.00;102111.00;4882115;29;20040;-75
2021/11/19 01:44:18;;;;;;;39.33;12.87;;;;;;;10.49;100.00;102100.81;4906327;29;20048;-75
2021/11/19 01:46:47;;;;;;;39.28;12.68;;;;;;;10.48;100.00;102100.91;4870340;29;20567;-74
2021/11/19 01:49:14;;;;;;;26.35;12.05;;;;;;;10.46;100.00;102092.31;4872152;29;20044;-77
2021/11/19 01:51:49;;;;;;;25.40;12.48;;;;;;;10.44;100.00;102095.06;4899972;29;20067;-76
2021/11/19 01:54:23;;;;;;;28.38;11.90;;;;;;;10.49;100.00;102086.84;4885529;29;20414;-75
2021/11/19 01:57:14;;;;;;;27.77;11.15;;;;;;;10.50;100.00;102085.91;4895104;29;20096;-75
2021/11/19 01:59:50;;;;;;;23.33;10.93;;;;;;;10.52;100.00;102089.25;4889099;29;20044;-76
2021/11/19 02:02:24;;;;;;;25.27;10.38;;;;;;;10.46;100.00;102084.44;4881944;29;20650;-77
2021/11/19 02:05:04;;;;;;;26.15;10.95;;;;;;;10.40;100.00;102077.88;4904251;29;20064;-75
2021/11/19 02:07:34;;;;;;;31.08;9.90;;;;;;;10.43;100.00;102092.53;4886097;29;20036;-76
2021/11/19 02:10:25;;;;;;;24.70;9.38;;;;;;;10.41;100.00;102089.19;4873334;29;20128;-75
2021/11/19 02:13:21;;;;;;;21.25;10.02;;;;;;;10.41;100.00;102091.81;4894722;29;20036;-76
2021/11/19 02:15:51;;;;;;;23.25;9.85;;;;;;;10.37;100.00;102091.19;4893580;29;20044;-76
2021/11/19 02:18:25;;;;;;;25.05;9.80;;;;;;;10.42;100.00;102096.94;4871738;29;20036;-75
2021/11/19 02:20:58;;;;;;;28.05;10.18;;;;;;;10.39;100.00;102099.78;4880780;29;20056;-76
2021/11/19 02:23:34;;;;;;;23.63;10.50;;;;;;;10.47;100.00;102099.22;4904257;29;20036;-75
2021/11/19 02:26:05;;;;;;;26.65;10.27;;;;;;;10.46;100.00;102094.94;4902732;29;20041;-75
2021/11/19 02:28:34;;;;;;;17.27;9.40;;;;;;;10.46;100.00;102103.63;4889145;29;20041;-74
2021/11/19 02:31:19;;;;;;;26.20;10.18;;;;;;;10.49;100.00;102092.06;4907292;29;20042;-75
2021/11/19 02:33:49;;;;;;;25.27;10.65;;;;;;;10.51;100.00;102101.53;4904654;29;20044;-76
2021/11/19 02:36:24;;;;;;;24.08;11.23;;;;;;;10.50;100.00;102102.47;4898605;29;20036;-74
2021/11/19 02:39:01;;;;;;;26.45;10.10;;;;;;;10.45;100.00;102103.75;4895175;29;20044;-76
2021/11/19 02:41:30;;;;;;;25.85;11.13;;;;;;;10.45;100.00;102106.38;4910729;29;20039;-76
2021/11/19 02:44:00;;;;;;;29.67;10.02;;;;;;;10.48;100.00;102107.00;4854872;29;20459;-75
2021/11/19 02:46:39;;;;;;;22.00;10.18;;;;;;;10.47;100.00;102107.09;4881683;29;20047;-74
2021/11/19 02:49:07;;;;;;;24.35;10.38;;;;;;;10.45;100.00;102101.97;4889304;29;20040;-75
2021/11/19 02:51:35;;;;;;;20.77;10.65;;;;;;;10.47;100.00;102097.47;4898258;29;20079;-76
2021/11/19 02:54:06;;;;;;;23.98;10.77;;;;;;;10.49;100.00;102099.94;4879572;29;20554;-76
2021/11/19 02:56:34;;;;;;;24.42;9.73;;;;;;;10.43;100.00;102111.72;4904638;29;20096;-76
2021/11/19 02:59:01;;;;;;;18.98;10.23;;;;;;;10.42;100.00;102106.63;4884251;29;20041;-75
2021/11/19 03:01:33;;;;;;;29.77;11.40;;;;;;;10.48;100.00;102104.38;4895892;29;20024;-76
2021/11/19 03:04:02;;;;;;;16.27;9.40;;;;;;;10.53;100.00;102109.28;4887855;29;20040;-76
2021/11/19 03:06:29;;;;;;;30.17;10.48;;;;;;;10.55;100.00;102104.75;4900239;29;20112;-76
2021/11/19 03:08:56;;;;;;;25.55;10.50;;;;;;;10.55;100.00;102101.28;4892216;29;20044;-76
2021/11/19 03:11:22;;;;;;;20.38;9.93;;;;;;;10.56;100.00;102110.84;4902749;29;20120;-76
2021/11/19 03:13:48;;;;;;;28.00;11.07;;;;;;;10.50;100.00;102107.72;4897548;29;20048;-76
2021/11/19 03:16:15;;;;;;;26.60;10.95;;;;;;;10.51;100.00;102106.78;4900654;29;20033;-76
2021/11/19 03:18:41;;;;;;;26.88;10.70;;;;;;;10.59;100.00;102105.38;4887186;29;20071;-76
2021/11/19 03:21:12;;;;;;;25.27;9.30;;;;;;;10.51;100.00;102104.16;4882546;29;20392;-75
2021/11/19 03:23:38;;;;;;;27.83;10.40;;;;;;;10.49;100.00;102107.81;4886245;29;20468;-75
2021/11/19 03:26:07;;;;;;;29.58;9.95;;;;;;;10.60;100.00;102101.78;4896583;29;20286;-76
2021/11/19 03:28:33;;;;;;;25.50;9.10;;;;;;;10.56;100.00;102106.41;4919569;29;20074;-76
2021/11/19 03:31:05;;;;;;;27.10;8.88;;;;;;;10.55;100.00;102114.41;4892208;29;20060;-76
2021/11/19 03:33:35;;;;;;;25.92;9.65;;;;;;;10.51;100.00;102116.44;4923714;29;20048;-76
2021/11/19 03:36:04;;;;;;;21.73;8.93;;;;;;;10.56;100.00;102114.28;4881543;29;20036;-76
2021/11/19 03:38:32;;;;;;;28.02;8.45;;;;;;;10.54;100.00;102107.50;4863155;29;20616;-76
2021/11/19 03:41:00;;;;;;;25.60;8.25;;;;;;;10.55;100.00;102111.78;4876523;29;20064;-76
2021/11/19 03:43:35;;;;;;;28.35;8.13;;;;;;;10.61;100.00;102109.56;4891974;29;20127;-76
2021/11/19 03:46:06;;;;;;;24.45;7.78;;;;;;;10.67;100.00;102109.09;4904922;29;20154;-76
2021/11/19 03:48:34;;;;;;;26.73;7.45;;;;;;;10.69;100.00;102114.22;4915035;29;20483;-76
2021/11/19 03:51:09;;;;;;;19.27;7.10;;;;;;;10.67;100.00;102114.34;4890080;29;20050;-76
2021/11/19 03:53:36;;;;;;;24.00;7.85;;;;;;;10.76;100.00;102104.97;4886241;29;20059;-76
2021/11/19 03:56:02;;;;;;;25.63;7.28;;;;;;;10.70;100.00;102116.75;4904995;29;20044;-76
2021/11/19 03:58:32;;;;;;;24.00;7.05;;;;;;;10.73;100.00;102122.72;4882240;29;20041;-75
2021/11/19 04:01:08;;;;;;;24.55;7.63;;;;;;;10.64;100.00;102121.59;4898983;29;20044;-76
2021/11/19 04:03:35;;;;;;;17.90;7.03;;;;;;;10.68;100.00;102112.53;4917078;29;20044;-76
2021/11/19 04:06:02;;;;;;;23.35;6.82;;;;;;;10.71;100.00;102121.03;4905516;29;20540;-77
2021/11/19 04:08:29;;;;;;;27.05;7.05;;;;;;;10.70;100.00;102126.41;4903925;29;20509;-77
2021/11/19 04:11:01;;;;;;;21.60;6.38;;;;;;;10.63;100.00;102130.44;4881736;29;20126;-76
2021/11/19 04:13:27;;;;;;;18.60;6.47;;;;;;;10.60;100.00;102123.59;4890529;29;20051;-77
2021/11/19 04:15:57;;;;;;;23.42;6.75;;;;;;;10.64;100.00;102130.34;4903128;29;20036;-75
2021/11/19 04:18:23;;;;;;;21.35;6.80;;;;;;;10.69;100.00;102127.34;4903634;29;20034;-75
2021/11/19 04:20:51;;;;;;;24.50;6.78;;;;;;;10.73;100.00;102126.16;4875045;29;20046;-76
2021/11/19 04:23:20;;;;;;;22.10;7.65;;;;;;;10.74;100.00;102127.00;4896978;29;20040;-77
2021/11/19 04:25:46;;;;;;;22.77;6.55;;;;;;;10.76;100.00;102123.31;4887217;29;20044;-76
2021/11/19 04:28:12;;;;;;;19.17;5.93;;;;;;;10.75;100.00;102124.25;4907622;29;20040;-76
2021/11/19 04:31:09;;;;;;;22.38;6.20;;;;;;;10.68;100.00;102130.91;4899355;29;20072;-76
2021/11/19 04:33:37;;;;;;;28.50;6.65;;;;;;;10.68;100.00;102126.53;4901675;29;20047;-76
2021/11/19 04:36:05;;;;;;;20.00;6.45;;;;;;;10.69;100.00;102128.19;4883921;29;20560;-76
2021/11/19 04:38:30;;;;;;;22.65;6.68;;;;;;;10.66;100.00;102131.06;4884064;29;20176;-74
2021/11/19 04:40:58;;;;;;;24.58;6.78;;;;;;;10.71;100.00;102141.19;4888495;29;20036;-76
2021/11/19 04:43:25;;;;;;;20.38;6.15;;;;;;;10.69;100.00;102140.47;4904155;29;20037;-76
2021/11/19 04:45:52;;;;;;;18.27;5.60;;;;;;;10.71;100.00;102149.91;4906431;29;20174;-76
2021/11/19 04:48:19;;;;;;;23.10;6.22;;;;;;;10.71;100.00;102155.16;4918220;29;20047;-77
2021/11/19 04:50:48;;;;;;;26.42;6.50;;;;;;;10.70;100.00;102160.53;4907559;29;20028;-77
2021/11/19 04:53:16;;;;;;;25.00;6.18;;;;;;;10.70;100.00;102147.41;4920321;29;20498;-77
2021/11/19 04:55:44;;;;;;;16.75;5.68;;;;;;;10.73;100.00;102157.66;4917653;29;20044;-76
2021/11/19 04:58:10;;;;;;;18.15;5.70;;;;;;;10.73;100.00;102162.09;4891086;29;20043;-75
2021/11/19 05:00:47;;;;;;;19.42;7.03;;;;;;;10.71;100.00;102151.69;4888933;29;20058;-77
2021/11/19 05:03:22;;;;;;;22.27;6.97;;;;;;;10.77;100.00;102153.03;4886091;29;20044;-76
2021/11/19 05:05:50;;;;;;;23.17;7.00;;;;;;;10.70;100.00;102153.50;4886126;29;20051;-76
2021/11/19 05:08:17;;;;;;;19.20;7.50;;;;;;;10.70;100.00;102152.66;4913277;29;20048;-75
2021/11/19 05:10:45;;;;;;;20.83;7.75;;;;;;;10.66;100.00;102154.66;4904075;29;20518;-76
2021/11/19 05:13:12;;;;;;;24.48;7.72;;;;;;;10.65;100.00;102154.78;4898576;29;20047;-76
2021/11/19 05:15:47;;;;;;;23.85;7.35;;;;;;;10.61;100.00;102148.09;4883877;29;20048;-75
2021/11/19 05:18:13;;;;;;;19.30;7.40;;;;;;;10.63;100.00;102144.38;4909051;29;20031;-77
2021/11/19 05:20:39;;;;;;;26.85;7.65;;;;;;;10.64;100.00;102155.72;4866247;29;20062;-76
2021/11/19 05:23:07;;;;;;;22.10;7.80;;;;;;;10.62;100.00;102141.88;4900464;29;20513;-77
2021/11/19 05:25:34;;;;;;;22.10;7.90;;;;;;;10.60;100.00;102144.59;4886116;29;20040;-75
2021/11/19 05:28:00;;;;;;;21.65;7.68;;;;;;;10.59;100.00;102153.44;4897491;29;20112;-76
2021/11/19 05:30:27;;;;;;;21.35;8.23;;;;;;;10.60;100.00;102146.38;4907915;29;20045;-76
2021/11/19 05:33:06;;;;;;;21.70;8.20;;;;;;;10.64;100.00;102147.84;4880345;29;20516;-77
2021/11/19 05:35:33;;;;;;;26.48;7.78;;;;;;;10.61;100.00;102142.84;4905438;29;20040;-77
2021/11/19 05:38:00;;;;;;;26.23;7.82;;;;;;;10.63;100.00;102140.94;4883224;29;20048;-76
2021/11/19 05:40:27;;;;;;;19.40;7.65;;;;;;;10.64;100.00;102143.44;4897175;29;20037;-77
2021/11/19 05:42:54;;;;;;;21.83;7.80;;;;;;;10.67;100.00;102137.94;4888834;29;20032;-76
2021/11/19 05:45:23;;;;;;;21.13;8.25;;;;;;;10.67;100.00;102132.72;4885734;29;20041;-76
2021/11/19 05:48:12;;;;;;;23.50;8.25;;;;;;;10.65;100.00;102137.22;4889463;29;20051;-76
2021/11/19 05:50:41;;;;;;;19.15;7.78;;;;;;;10.58;100.00;102141.25;4890961;29;20036;-77
2021/11/19 05:53:10;;;;;;;22.67;8.38;;;;;;;10.66;100.00;102136.28;4915399;29;20073;-77
2021/11/19 05:55:40;;;;;;;20.30;8.07;;;;;;;10.60;100.00;102136.72;4882003;29;20051;-75
2021/11/19 05:58:07;;;;;;;26.95;8.73;;;;;;;10.60;100.00;102139.34;4904046;29;20043;-76
2021/11/19 06:00:55;;;;;;;24.25;8.23;;;;;;;10.59;100.00;102132.44;4901078;29;20039;-77
2021/11/19 06:03:50;;;;;;;26.90;8.38;;;;;;;10.57;100.00;102138.72;4885369;29;20623;-77
2021/11/19 06:06:24;;;;;;;24.52;8.23;;;;;;;10.62;100.00;102141.88;4878316;29;20040;-77
2021/11/19 06:09:27;;;;;;;21.17;7.43;;;;;;;10.64;100.00;102142.59;4889615;29;20406;-76
2021/11/19 06:11:59;;;;;;;16.85;7.53;;;;;;;10.61;100.00;102145.47;4879811;29;20044;-76
2021/11/19 06:14:34;;;;;;;21.03;7.53;;;;;;;10.60;100.00;102141.97;4895723;29;20695;-76
2021/11/19 06:17:07;;;;;;;26.58;8.85;;;;;;;10.51;100.00;102146.13;4895271;29;20116;-75
2021/11/19 06:19:40;;;;;;;22.02;8.35;;;;;;;10.59;100.00;102147.34;4885417;29;20055;-76
2021/11/19 06:22:11;;;;;;;22.00;8.30;;;;;;;10.67;100.00;102152.88;4871811;29;20037;-75
2021/11/19 06:24:41;;;;;;;22.55;8.13;;;;;;;10.59;100.00;102147.34;4902247;29;20039;-76
2021/11/19 06:27:11;;;;;;;23.90;8.32;;;;;;;10.63;100.00;102152.25;4892551;29;20052;-76
2021/11/19 06:29:39;;;;;;;21.95;8.48;;;;;;;10.62;100.00;102150.56;4907937;29;20041;-75
2021/11/19 06:32:05;;;;;;;22.73;9.15;;;;;;;10.58;100.00;102159.63;4882633;29;20417;-77
2021/11/19 06:34:31;;;;;;;23.63;8.30;;;;;;;10.57;100.00;102157.97;4874598;29;20037;-76
2021/11/19 06:36:57;;;;;;;23.13;7.80;;;;;;;10.67;100.00;102163.38;4854609;29;20053;-74
2021/11/19 06:39:25;;;;;;;21.48;7.88;;;;;;;10.63;100.00;102161.91;4880434;29;20041;-77
2021/11/19 06:41:51;;;;;;;23.35;7.80;;;;;;;10.62;100.00;102155.00;4883452;29;20067;-75
2021/11/19 06:44:31;;;;;;;19.30;7.72;;;;;;;10.65;100.00;102160.03;4902737;29;20044;-76
2021/11/19 06:47:23;;;;;;;21.83;8.48;;;;;;;10.65;100.00;102163.47;4899371;29;20060;-75
2021/11/19 06:50:09;;;;;;;23.35;8.13;;;;;;;10.58;100.00;102156.16;4903987;29;20043;-74
2021/11/19 06:52:55;;;;;;;27.17;8.13;;;;;;;10.61;100.00;102169.06;4913554;29;20120;-75
2021/11/19 06:55:48;;;;;;;24.77;7.55;;;;;;;10.57;100.00;102163.22;4894812;29;20040;-75
2021/11/19 06:58:26;;;;;;;20.83;7.75;;;;;;;10.54;100.00;102160.78;4919704;29;20057;-75
2021/11/19 07:00:54;;;;;;;22.27;7.38;;;;;;;10.60;100.00;102164.75;4886170;29;20036;-75
2021/11/19 07:03:20;;;;;;;24.35;8.13;;;;;;;10.67;100.00;102155.50;4891902;29;20045;-75
2021/11/19 07:05:48;;;;;;;22.02;7.32;;;;;;;10.69;100.00;102161.47;4907108;29;20074;-75
2021/11/19 07:08:13;;;;;;;23.15;7.47;;;;;;;10.62;100.00;102166.31;4902617;29;20075;-74
2021/11/19 07:10:43;;;;;;;18.98;7.38;;;;;;;10.74;100.00;102166.38;4899615;29;20040;-75
2021/11/19 07:13:11;;;;;;;16.30;7.00;;;;;;;10.74;100.00;102169.84;4901213;29;20044;-75
2021/11/19 07:15:42;;;;;;;27.15;7.53;;;;;;;10.71;100.00;102167.44;4918736;29;20138;-74
2021/11/19 07:18:09;;;;;;;22.13;7.13;;;;;;;10.71;100.00;102184.00;4886250;29;20091;-75
2021/11/19 07:20:36;;;;;;;26.27;7.30;;;;;;;10.67;100.00;102169.44;4890212;29;20049;-75
2021/11/19 07:23:03;;;;;;;23.50;6.13;;;;;;;10.70;100.00;102177.09;4884183;29;20044;-75
2021/11/19 07:25:31;;;;;;;24.08;6.95;;;;;;;10.71;100.00;102172.69;4888336;29;20131;-76
2021/11/19 07:27:59;;;;;;;21.52;6.25;;;;;;;10.76;100.00;102175.81;4883487;29;20807;-75
2021/11/19 07:30:35;;;;;;;25.75;6.47;;;;;;;10.81;100.00;102189.44;4886194;29;20040;-75
2021/11/19 07:33:07;;;;;;;21.58;5.80;;;;;;;10.78;100.00;102192.28;4891307;29;20032;-76
2021/11/19 07:35:41;;;;;;;19.73;4.95;;;;;;;10.80;100.00;102182.50;4884558;29;20040;-75
2021/11/19 07:38:27;;;;;;;18.92;5.45;;;;;;;10.87;100.00;102193.41;4900390;29;20426;-74
2021/11/19 07:41:17;;;;;;;20.70;5.63;;;;;;;10.88;100.00;102200.31;4884345;29;20506;-76
2021/11/19 07:44:09;;;;;;;21.95;5.72;;;;;;;10.93;100.00;102202.63;4889702;29;20947;-76
2021/11/19 07:46:48;;;;;;;19.70;5.85;;;;;;;10.95;100.00;102195.47;4898800;29;20048;-75
2021/11/19 07:49:13;;;;;;;19.30;5.43;;;;;;;10.97;100.00;102202.28;4879760;29;20039;-76
2021/11/19 07:51:45;;;;;;;17.23;4.82;;;;;;;10.94;100.00;102196.41;4888133;29;20040;-76
2021/11/19 07:54:12;;;;;;;12.48;4.53;;;;;;;10.94;100.00;102191.16;4891100;29;20044;-76
2021/11/19 07:56:39;;;;;;;18.50;5.15;;;;;;;10.95;100.00;102198.91;4904005;29;20450;-76
2021/11/19 07:59:09;;;;;;;20.77;5.68;;;;;;;10.96;100.00;102192.69;4906533;29;20068;-75
2021/11/19 08:01:37;;;;;;;27.55;5.65;;;;;;;10.99;100.00;102200.38;4902917;29;20048;-76
2021/11/19 08:04:03;;;;;;;14.93;5.15;;;;;;;11.04;100.00;102202.66;4886791;29;20048;-76
2021/11/19 08:06:29;;;;;;;16.33;5.22;;;;;;;11.05;100.00;102204.31;4898080;29;20049;-76
2021/11/19 08:09:14;;;;;;;26.63;5.10;;;;;;;11.02;100.00;102200.16;4888090;29;20040;-73
2021/11/19 08:11:46;;;;;;;19.77;5.13;;;;;;;11.12;100.00;102199.47;4882816;29;20499;-75
2021/11/19 08:14:12;;;;;;;22.33;5.50;;;;;;;11.06;100.00;102190.25;4886953;29;20051;-74
2021/11/19 08:16:54;;;;;;;21.20;5.47;;;;;;;11.07;100.00;102203.25;4916049;29;20048;-74
2021/11/19 08:19:30;;;;;;;18.60;5.57;;;;;;;11.01;100.00;102203.72;4883179;29;20029;-73
2021/11/19 08:21:58;;;;;;;22.23;5.63;;;;;;;11.00;100.00;102193.31;4915619;29;20068;-74
2021/11/19 08:24:25;;;;;;;22.65;5.97;;;;;;;11.04;100.00;102205.28;4888194;29;20067;-74
2021/11/19 08:26:56;;;;;;;17.30;5.53;;;;;;;11.08;100.00;102211.97;4906814;29;20578;-74
2021/11/19 08:29:28;;;;;;;22.92;6.00;;;;;;;11.13;100.00;102203.75;4907561;29;20040;-73
2021/11/19 08:31:54;;;;;;;16.95;5.95;;;;;;;11.12;100.00;102202.91;4909341;29;20033;-73
2021/11/19 08:34:21;;;;;;;19.48;6.22;;;;;;;11.10;100.00;102213.53;4900553;29;20040;-72
2021/11/19 08:36:48;;;;;;;21.58;6.25;;;;;;;11.12;100.00;102217.84;4901835;29;20060;-75
2021/11/19 08:39:18;;;;;;;19.75;6.00;;;;;;;11.13;100.00;102211.63;4906355;29;20044;-74
2021/11/19 08:41:44;;;;;;;20.55;6.35;;;;;;;11.08;100.00;102214.63;4895142;29;20036;-72
2021/11/19 08:44:10;;;;;;;19.83;5.97;;;;;;;11.12;100.00;102215.22;4898295;29;20042;-73
2021/11/19 08:46:46;;;;;;;17.48;6.07;;;;;;;11.13;100.00;102212.47;4897523;29;20119;-73
2021/11/19 08:49:14;;;;;;;21.05;6.18;;;;;;;11.15;100.00;102215.84;4892773;29;20092;-72
2021/11/19 08:51:41;;;;;;;28.88;7.53;;;;;;;11.18;100.00;102210.34;4895421;29;20089;-75
2021/11/19 08:54:09;;;;;;;22.38;6.38;;;;;;;11.20;100.00;102211.06;4898223;29;20562;-73
2021/11/19 08:56:37;;;;;;;17.80;6.70;;;;;;;11.21;100.00;102207.50;4910019;29;20036;-74
2021/11/19 08:59:09;;;;;;;21.50;6.88;;;;;;;11.22;100.00;102210.94;4901554;29;20465;-74
2021/11/19 09:01:36;;;;;;;21.83;7.68;;;;;;;11.19;100.00;102216.41;4899666;29;20028;-72
2021/11/19 09:04:03;;;;;;;18.15;6.40;;;;;;;11.17;100.00;102210.44;4889160;29;20051;-72
2021/11/19 09:06:31;;;;;;;19.98;6.22;;;;;;;11.15;100.00;102218.47;4908979;29;20051;-73
2021/11/19 09:08:56;;;;;;;18.35;6.45;;;;;;;11.07;100.00;102221.63;4900634;29;20060;-73
2021/11/19 09:11:24;;;;;;;21.55;6.75;;;;;;;11.08;100.00;102225.94;4903664;29;20033;-73
2021/11/19 09:13:55;;;;;;;21.35;6.43;;;;;;;11.05;100.00;102227.97;4915391;29;20064;-74
2021/11/19 09:16:23;;;;;;;18.17;6.63;;;;;;;11.02;100.00;102221.16;4894587;29;20040;-74
2021/11/19 09:19:09;;;;;;;16.27;6.57;;;;;;;11.04;100.00;102227.13;4901110;29;20050;-73
2021/11/19 09:21:45;;;;;;;25.75;6.38;;;;;;;11.01;100.00;102224.72;4897970;29;20044;-74
2021/11/19 09:24:23;;;;;;;18.60;6.80;;;;;;;11.12;100.00;102225.72;4895526;29;20036;-74
2021/11/19 09:26:55;;;;;;;12.20;5.82;;;;;;;11.09;100.00;102218.91;4909852;29;20691;-74
2021/11/19 09:29:29;;;;;;;19.27;6.32;;;;;;;11.17;100.00;102220.94;4894828;29;20040;-74
2021/11/19 09:31:56;;;;;;;16.90;5.75;;;;;;;11.25;100.00;102216.81;4887227;29;20036;-74
2021/11/19 09:34:23;;;;;;;11.77;5.10;;;;;;;11.34;100.00;102223.19;4901037;29;20044;-73
2021/11/19 09:36:51;;;;;;;15.65;5.70;;;;;;;11.26;100.00;102225.53;4888672;29;20229;-74
2021/11/19 09:39:18;;;;;;;14.75;5.85;;;;;;;11.27;100.00;102228.03;4879119;29;20073;-73
2021/11/19 09:42:10;;;;;;;14.70;5.80;;;;;;;11.32;100.00;102225.09;4882301;29;20060;-73
2021/11/19 09:45:05;;;;;;;12.90;5.55;;;;;;;11.33;100.00;102228.53;4906388;29;20040;-74
2021/11/19 09:47:56;;;;;;;17.30;5.88;;;;;;;11.39;100.00;102218.38;4896424;29;20040;-73
2021/11/19 09:50:37;;;;;;;15.80;5.78;;;;;;;11.42;100.00;102225.22;4905102;29;20032;-74
2021/11/19 09:53:40;;;;;;;11.30;5.57;;;;;;;11.47;100.00;102209.94;4884688;29;20040;-73
2021/11/19 09:56:36;;;;;;;15.65;5.70;;;;;;;11.46;100.00;102226.66;4890053;29;20507;-73
2021/11/19 09:59:20;;;;;;;10.60;5.25;;;;;;;11.49;100.00;102229.06;4874255;29;20044;-72
2021/11/19 10:02:04;;;;;;;16.23;6.60;;;;;;;11.50;100.00;102226.28;4893282;29;21260;-74
2021/11/19 10:04:50;;;;;;;9.90;5.57;;;;;;;11.50;100.00;102230.72;4902969;29;20383;-74
2021/11/19 10:07:42;;;;;;;15.10;5.70;;;;;;;11.53;100.00;102229.63;4884691;29;20586;-73
2021/11/19 10:10:11;;;;;;;17.40;5.77;;;;;;;11.61;100.00;102232.53;4912816;29;20047;-74
2021/11/19 10:12:44;;;;;;;13.27;5.10;;;;;;;11.62;100.00;102226.31;4889875;29;20090;-74
2021/11/19 10:15:19;;;;;;;14.30;5.22;;;;;;;11.61;100.00;102228.13;4904744;29;20047;-73
2021/11/19 10:18:00;;;;;;;12.60;4.95;;;;;;;11.64;100.00;102220.00;4895245;29;20083;-73
2021/11/19 10:20:33;;;;;;;14.50;4.78;;;;;;;11.65;100.00;102226.94;4896188;29;20037;-73
2021/11/19 10:23:06;;;;;;;9.32;4.90;;;;;;;11.64;100.00;102233.16;4885432;29;20040;-75
2021/11/19 10:26:01;;;;;;;15.82;5.38;;;;;;;11.56;100.00;102235.50;4881457;29;20076;-73
2021/11/19 10:28:46;;;;;;;15.63;5.00;;;;;;;11.59;100.00;102229.19;4915652;29;20032;-73
2021/11/19 10:31:16;;;;;;;12.38;4.72;;;;;;;11.60;100.00;102225.59;4907205;29;20094;-72
2021/11/19 10:34:02;;;;;;;13.82;5.40;;;;;;;11.61;100.00;102228.13;4900334;29;20063;-73
2021/11/19 10:36:38;;;;;;;13.70;5.32;;;;;;;11.60;100.00;102218.56;4906717;29;20440;-74
2021/11/19 10:39:32;;;;;;;14.65;4.85;;;;;;;11.59;100.00;102224.78;4891031;29;20961;-73
2021/11/19 10:42:24;;;;;;;17.23;5.47;;;;;;;11.60;100.00;102225.59;4881266;29;20044;-74
2021/11/19 10:44:56;;;;;;;11.32;5.13;;;;;;;11.68;100.00;102226.69;4881645;29;20584;-73
2021/11/19 10:47:49;;;;;;;12.70;4.65;;;;;;;11.72;100.00;102229.09;4880794;29;20498;-73
2021/11/19 10:50:15;;;;;;;;;;;;;;;11.76;100.00;102222.66;4865475;29;20064;-74
2021/11/19 10:52:59;;;;;;;15.02;5.35;;;;;;;11.77;100.00;102221.69;4923067;29;20369;-74
2021/11/19 10:55:55;;;;;;;17.23;4.60;;;;;;;11.79;100.00;102233.78;4926605;29;20042;-75
2021/11/19 10:58:28;;;;;;;12.85;5.20;;;;;;;11.78;100.00;102231.25;4926190;29;20037;-74
2021/11/19 11:01:00;;;;;;;11.05;4.90;;;;;;;11.81;100.00;102234.50;4881476;29;20194;-74
2021/11/19 11:03:31;;;;;;;16.10;5.20;;;;;;;11.77;100.00;102237.44;4920127;29;20372;-73
2021/11/19 11:06:09;;;;;;;13.48;4.70;;;;;;;11.75;100.00;102231.47;4903817;29;20040;-73
2021/11/19 11:08:42;;;;;;;15.32;4.88;;;;;;;11.65;100.00;102229.56;4903895;29;20139;-73
2021/11/19 11:11:13;;;;;;;;;;;;;;;11.67;100.00;102232.06;4887394;29;20040;-74
2021/11/19 11:13:55;;;;;;;17.08;4.80;;;;;;;11.68;100.00;102239.00;4891289;29;20030;-72
2021/11/19 11:16:23;;;;;;;19.05;5.30;;;;;;;11.58;100.00;102235.41;4906294;29;20052;-73
2021/11/19 11:19:22;;;;;;;17.35;4.80;;;;;;;11.55;100.00;102235.66;4896018;29;20103;-74
2021/11/19 11:21:50;;;;;;;10.35;4.40;;;;;;;11.62;100.00;102231.56;4884272;29;20071;-74
2021/11/19 11:24:44;;;;;;;13.77;5.40;;;;;;;11.60;100.00;102229.09;4907477;29;20036;-73
2021/11/19 11:27:28;;;;;;;18.33;5.57;;;;;;;11.63;100.00;102231.47;4906848;29;20831;-73
2021/11/19 11:30:09;;;;;;;16.60;6.05;;;;;;;11.62;100.00;102229.81;4903241;29;20068;-73
2021/11/19 11:33:23;;;;;;;18.40;5.50;;;;;;;11.63;100.00;102226.22;4911928;29;20040;-74